Kantner, PA (15548)

12:24 PM EST on February 12, 2016 (GMT -0500)
Stoystown | | Change Station
CLOSE
Current Station
Personal Weather Station
Location: Stoystown, PA
Elevation: 2172 ft
Nearby Weather Stations

Elev 2172 ft 40.11 °N, 78.94 °W | Updated 5 seconds ago

Overcast
Overcast
18.3 °F
Feels Like 18 °F
N
0.0
Wind Variable Wind from SW
Gusts 0.0 mph

Today
High -- | Low -- °F
--% Chance of Precip.
Yesterday
High -- | Low -- °F
Precip. -- in
Pressure 30.11 in
Visibility 10.0 miles
Clouds Mostly Cloudy 6500 ft
Overcast 8000 ft
Windchill 18 °F
Dew Point -29 °F
Humidity 10%
Rainfall 0.00 in
Snow Depth Not available.
7:13 AM 5:47 PM
Waxing Crescent, 22% visible
METAR KJST 121654Z AUTO 24006KT 10SM BKN065 OVC080 M11/M17 A2997 RMK AO2 SLP195 T11061167
Pressure 30.11 in
Visibility 10.0 miles
Clouds Mostly Cloudy 6500 ft
Overcast 8000 ft
Windchill 18 °F
Dew Point -29 °F
Humidity 10%
Rainfall 0.00 in
Snow Depth Not available.
7:13 AM 5:47 PM
Waxing Crescent, 22% visible
METAR KJST 121654Z AUTO 24006KT 10SM BKN065 OVC080 M11/M17 A2997 RMK AO2 SLP195 T11061167

10-Day Weather Forecast

Almanac

Astronomy

Feb. 12, 2016 Rise Set
Actual Time
Civil Twilight
Nautical Twilight
Astronomical Twilight
Moon
Length of Visible Light
Length of Day
Tomorrow will be .
, % of the Moon is Illuminated

Today's Extremes

State Highs State Lows

Community

WunderPhotos

Upload Photos

1,892,353 photos uploaded!

WunderBlog® & News

Nearby

Air Quality

  Air Quality AQ Index Pollutant
Not available.

Snow Depth

Station Depth Elevation

Earthquake Activity

City Distance Mag. Time & Date
Minimum magnitude displayed is 2.5.

Coastal Water Temperatures

Place Temperature

Stations

Nearby Weather Stations

Station Location Temp. Windchill Dew Point Humidity Wind Precip. Elev Updated Type
                   

Watches & Warnings

Wind Chill Advisory
Issued: 4:35 AM EST Feb. 12, 2016 – National Weather Service

... Wind Chill Advisory in effect from 4 am Saturday to 11 am EST
Sunday...

The National Weather Service in State College has issued a Wind
Chill Advisory... which is in effect from 4 am Saturday to 11 am
EST Sunday.

* Locations... the Allegheny plateau.

* Hazard types... dangerous wind chills.

* Wind chills... 15 to 20 below zero.

* Timing... Saturday through Sunday morning.

* Impacts... frostbite and hypothermia are possible if precautions
are not taken.

Precautionary/preparedness actions...

Precautionary/preparedness actions...

If you will be outdoors... dress in layers and wear a hat and
gloves. Young children... the elderly and the homeless are
especially vulnerable to the cold. Appropriate action should be
taken to ensure pets have adequate protection from the cold
temperatures.